createdAt,value
2023-01-15T00:00:17.011Z,92.9
2023-01-15T00:01:16.573Z,92.8
2023-01-15T00:02:17.620Z,92.7
2023-01-15T00:03:17.186Z,92.2
2023-01-15T00:04:16.697Z,92.0
2023-01-15T00:05:17.236Z,91.7
2023-01-15T00:06:16.735Z,91.7
2023-01-15T00:07:17.228Z,92.0
2023-01-15T00:08:16.754Z,92.1
2023-01-15T00:09:17.344Z,91.9
2023-01-15T00:10:16.869Z,91.7
2023-01-15T00:11:17.384Z,91.8
2023-01-15T00:12:17.051Z,91.6
2023-01-15T00:13:16.566Z,91.6
2023-01-15T00:14:17.070Z,91.4
2023-01-15T00:15:16.588Z,91.5
2023-01-15T00:16:17.125Z,91.7
2023-01-15T00:17:16.673Z,91.8
2023-01-15T00:18:17.165Z,91.7
2023-01-15T00:19:16.646Z,91.7
2023-01-15T00:20:17.154Z,91.8
2023-01-15T00:21:16.685Z,91.5
2023-01-15T00:22:17.104Z,91.5
2023-01-15T00:23:16.630Z,91.5
2023-01-15T00:24:17.106Z,91.5
2023-01-15T00:25:16.581Z,91.5
2023-01-15T00:26:17.084Z,91.0
2023-01-15T00:27:16.611Z,91.0
2023-01-15T00:28:17.166Z,90.7
2023-01-15T00:29:16.696Z,90.8
2023-01-15T00:30:17.251Z,90.9
2023-01-15T00:31:16.933Z,90.6
2023-01-15T00:32:17.201Z,90.7
2023-01-15T00:33:16.707Z,90.6
2023-01-15T00:34:17.194Z,90.5
2023-01-15T00:35:16.821Z,90.3
2023-01-15T00:36:17.322Z,90.3
2023-01-15T00:37:16.804Z,90.1
2023-01-15T00:38:17.282Z,90.1
2023-01-15T00:39:16.804Z,90.1
2023-01-15T00:40:17.320Z,89.6
2023-01-15T00:41:16.824Z,89.4
2023-01-15T00:42:16.729Z,89.5
2023-01-15T00:43:17.238Z,89.5
2023-01-15T00:44:16.766Z,89.5
2023-01-15T00:45:17.461Z,89.6
2023-01-15T00:46:17.350Z,89.6
2023-01-15T00:47:16.892Z,89.5
2023-01-15T00:48:17.382Z,89.3
2023-01-15T00:49:16.903Z,89.0
2023-01-15T00:50:17.435Z,89.1
2023-01-15T00:51:16.960Z,89.0
2023-01-15T00:52:16.535Z,88.8
2023-01-15T00:53:17.034Z,89.1
2023-01-15T00:54:16.535Z,88.8
2023-01-15T00:55:17.051Z,88.8
2023-01-15T00:56:16.547Z,88.8
2023-01-15T00:57:17.067Z,88.9
2023-01-15T00:58:16.609Z,89.0
2023-01-15T00:59:17.112Z,88.7
2023-01-15T01:00:16.649Z,88.3
2023-01-15T01:01:17.402Z,88.3
2023-01-15T01:02:17.134Z,88.4
2023-01-15T01:03:16.708Z,88.4
2023-01-15T01:04:17.199Z,88.3
2023-01-15T01:05:16.682Z,88.3
2023-01-15T01:06:17.215Z,88.5
2023-01-15T01:07:16.715Z,88.5
2023-01-15T01:08:17.212Z,88.4
2023-01-15T01:09:16.729Z,88.3
2023-01-15T01:10:17.215Z,88.4
2023-01-15T01:11:16.714Z,88.3
2023-01-15T01:12:17.388Z,88.4
2023-01-15T01:13:16.902Z,88.5
2023-01-15T01:14:17.407Z,88.5
2023-01-15T01:15:16.924Z,88.4
2023-01-15T01:16:17.597Z,88.3
2023-01-15T01:17:17.104Z,88.3
2023-01-15T01:18:16.604Z,88.2
2023-01-15T01:19:17.637Z,88.2
2023-01-15T01:20:17.172Z,88.1
2023-01-15T01:21:16.704Z,88.1
2023-01-15T01:22:17.323Z,88.0
2023-01-15T01:23:16.853Z,88.1
2023-01-15T01:24:17.394Z,88.1
2023-01-15T01:25:16.905Z,88.1
2023-01-15T01:26:17.435Z,88.2
2023-01-15T01:27:16.936Z,88.1
2023-01-15T01:28:17.442Z,88.1
2023-01-15T01:29:16.945Z,88.3
2023-01-15T01:30:17.494Z,88.4
2023-01-15T01:31:17.072Z,88.4
2023-01-15T01:32:17.004Z,88.6
2023-01-15T01:33:16.512Z,88.4
2023-01-15T01:34:17.031Z,88.7
2023-01-15T01:35:16.544Z,88.6
2023-01-15T01:36:17.052Z,88.5
2023-01-15T01:37:16.550Z,88.5
2023-01-15T01:38:17.094Z,88.4
2023-01-15T01:39:16.590Z,88.5
2023-01-15T01:40:17.093Z,88.5
2023-01-15T01:41:16.588Z,88.5
2023-01-15T01:42:16.833Z,88.4
2023-01-15T01:43:17.307Z,88.4
2023-01-15T01:44:16.848Z,88.2
2023-01-15T01:45:17.358Z,88.2
2023-01-15T01:46:16.853Z,87.8
2023-01-15T01:47:17.357Z,88.0
2023-01-15T01:48:16.865Z,88.0
2023-01-15T01:49:17.387Z,88.0
2023-01-15T01:50:16.887Z,87.9
2023-01-15T01:51:17.368Z,87.9
2023-01-15T01:52:16.940Z,87.7
2023-01-15T01:53:17.479Z,87.8
2023-01-15T01:54:16.992Z,87.8
2023-01-15T01:55:16.507Z,88.0
2023-01-15T01:56:17.041Z,87.8
2023-01-15T01:57:16.549Z,87.9
2023-01-15T01:58:17.086Z,87.7
2023-01-15T01:59:16.573Z,87.8
2023-01-15T02:00:17.083Z,87.9
2023-01-15T02:01:16.843Z,87.8
2023-01-15T02:02:17.162Z,87.8
2023-01-15T02:03:16.686Z,87.7
2023-01-15T02:04:17.183Z,87.7
2023-01-15T02:05:16.673Z,87.7
2023-01-15T02:06:17.206Z,87.8
2023-01-15T02:07:16.746Z,87.8
2023-01-15T02:08:17.236Z,87.7
2023-01-15T02:09:16.755Z,87.5
2023-01-15T02:10:17.282Z,87.5
2023-01-15T02:11:16.815Z,87.5
2023-01-15T02:12:17.398Z,87.4
2023-01-15T02:13:16.899Z,87.3
2023-01-15T02:14:17.383Z,87.2
2023-01-15T02:15:16.900Z,87.3
2023-01-15T02:16:17.512Z,87.1
2023-01-15T02:17:17.113Z,87.3
2023-01-15T02:18:16.621Z,87.4
2023-01-15T02:19:17.117Z,87.0
2023-01-15T02:20:16.634Z,87.1
2023-01-15T02:21:17.171Z,87.1
2023-01-15T02:22:16.510Z,87.0
2023-01-15T02:23:17.046Z,86.8
2023-01-15T02:24:16.557Z,86.8
2023-01-15T02:25:17.077Z,87.0
2023-01-15T02:26:16.597Z,86.9
2023-01-15T02:27:17.107Z,87.0
2023-01-15T02:28:16.647Z,86.9
2023-01-15T02:29:17.179Z,86.9
2023-01-15T02:30:16.708Z,86.9
2023-01-15T02:31:17.275Z,87.1
2023-01-15T02:32:16.537Z,87.0
2023-01-15T02:33:17.056Z,86.9
2023-01-15T02:34:16.563Z,86.9
2023-01-15T02:35:17.087Z,86.7
2023-01-15T02:36:16.608Z,86.7
2023-01-15T02:37:17.128Z,86.7
2023-01-15T02:38:16.638Z,86.6
2023-01-15T02:39:17.158Z,86.7
2023-01-15T02:40:16.722Z,86.6
2023-01-15T02:41:17.210Z,86.5
2023-01-15T02:42:16.495Z,86.6
2023-01-15T02:43:16.988Z,86.5
2023-01-15T02:44:16.476Z,86.6
2023-01-15T02:45:16.974Z,86.3
2023-01-15T02:46:16.452Z,86.4
2023-01-15T02:47:16.939Z,86.4
2023-01-15T02:48:17.445Z,86.3
2023-01-15T02:49:16.936Z,86.1
2023-01-15T02:50:17.452Z,86.2
2023-01-15T02:51:16.942Z,86.0
2023-01-15T02:52:16.829Z,85.9
2023-01-15T02:53:17.336Z,85.6
2023-01-15T02:54:16.832Z,85.7
2023-01-15T02:55:17.344Z,85.7
2023-01-15T02:56:16.826Z,85.6
2023-01-15T02:57:17.373Z,85.6
2023-01-15T02:58:16.891Z,85.0
2023-01-15T02:59:17.439Z,84.9
2023-01-15T03:00:16.951Z,85.1
2023-01-15T03:01:17.713Z,85.3
2023-01-15T03:02:17.079Z,85.3
2023-01-15T03:03:16.615Z,85.3
2023-01-15T03:04:17.124Z,85.2
2023-01-15T03:05:16.650Z,85.2
2023-01-15T03:06:17.187Z,84.9
2023-01-15T03:07:16.697Z,84.9
2023-01-15T03:08:17.247Z,84.7
2023-01-15T03:09:16.755Z,84.6
2023-01-15T03:10:17.304Z,84.8
2023-01-15T03:11:16.792Z,84.3
2023-01-15T03:12:16.832Z,84.3
2023-01-15T03:13:17.423Z,84.3
2023-01-15T03:14:16.911Z,84.0
2023-01-15T03:15:17.401Z,84.1
2023-01-15T03:16:16.988Z,84.2
2023-01-15T03:17:16.517Z,84.0
2023-01-15T03:18:17.032Z,84.2
2023-01-15T03:19:16.622Z,84.2
2023-01-15T03:20:17.148Z,84.3
2023-01-15T03:21:16.672Z,84.2
2023-01-15T03:22:17.290Z,84.3
2023-01-15T03:23:16.782Z,84.2
2023-01-15T03:24:17.290Z,84.1
2023-01-15T03:25:16.764Z,84.0
2023-01-15T03:26:17.260Z,83.9
2023-01-15T03:27:16.787Z,84.1
2023-01-15T03:28:17.292Z,83.8
2023-01-15T03:29:16.826Z,83.7
2023-01-15T03:30:17.367Z,83.9
2023-01-15T03:31:16.872Z,83.8
2023-01-15T03:32:16.776Z,83.8
2023-01-15T03:33:17.308Z,83.8
2023-01-15T03:34:16.820Z,83.7
2023-01-15T03:35:17.307Z,83.7
2023-01-15T03:36:18.386Z,83.8
2023-01-15T03:37:16.889Z,83.4
2023-01-15T03:38:17.388Z,83.5
2023-01-15T03:39:16.870Z,83.4
2023-01-15T03:40:17.379Z,83.4
2023-01-15T03:41:16.848Z,83.2
2023-01-15T03:42:17.226Z,83.0
2023-01-15T03:43:16.745Z,83.0
2023-01-15T03:44:17.230Z,83.0
2023-01-15T03:45:16.749Z,83.1
2023-01-15T03:46:17.358Z,83.0
2023-01-15T03:47:16.884Z,82.8
2023-01-15T03:48:17.404Z,82.9
2023-01-15T03:49:16.908Z,82.9
2023-01-15T03:50:17.421Z,82.7
2023-01-15T03:51:16.893Z,82.6
2023-01-15T03:52:16.478Z,82.6
2023-01-15T03:53:16.951Z,82.6
2023-01-15T03:54:17.627Z,82.8
2023-01-15T03:55:17.194Z,82.8
2023-01-15T03:56:16.699Z,82.9
2023-01-15T03:57:20.276Z,82.8
2023-01-15T03:58:16.857Z,83.0
2023-01-15T03:59:17.384Z,83.1
2023-01-15T04:00:16.912Z,82.9
2023-01-15T04:01:17.575Z,83.0
2023-01-15T04:02:16.977Z,82.9
2023-01-15T04:03:16.533Z,83.0
2023-01-15T04:04:17.101Z,83.3
2023-01-15T04:05:16.637Z,83.3
2023-01-15T04:06:17.160Z,83.4
2023-01-15T04:07:16.651Z,83.7
2023-01-15T04:08:18.275Z,84.2
2023-01-15T04:09:16.766Z,84.4
2023-01-15T04:10:17.287Z,84.5
2023-01-15T04:11:16.780Z,84.8
2023-01-15T04:12:17.219Z,85.0
2023-01-15T04:13:16.724Z,85.1
2023-01-15T04:14:17.248Z,85.5
2023-01-15T04:15:16.757Z,85.6
2023-01-15T04:16:17.267Z,85.8
2023-01-15T04:17:16.783Z,86.0
2023-01-15T04:18:17.319Z,86.0
2023-01-15T04:19:16.861Z,86.1
2023-01-15T04:20:17.367Z,86.5
2023-01-15T04:21:16.880Z,86.8
2023-01-15T04:22:17.116Z,87.1
2023-01-15T04:23:16.623Z,87.3
2023-01-15T04:24:17.141Z,87.5
2023-01-15T04:25:16.649Z,87.6
2023-01-15T04:26:17.151Z,87.7
2023-01-15T04:27:16.647Z,87.8
2023-01-15T04:28:17.192Z,88.0
2023-01-15T04:29:16.708Z,87.9
2023-01-15T04:30:17.211Z,88.0
2023-01-15T04:31:16.863Z,88.2
2023-01-15T04:32:17.349Z,88.2
2023-01-15T04:33:16.873Z,88.3
2023-01-15T04:34:17.385Z,88.6
2023-01-15T04:35:16.881Z,88.6
2023-01-15T04:36:17.382Z,89.1
2023-01-15T04:37:16.852Z,89.5
2023-01-15T04:38:17.345Z,90.0
2023-01-15T04:39:16.845Z,90.1
2023-01-15T04:40:17.377Z,90.4
2023-01-15T04:41:16.872Z,90.8
2023-01-15T04:42:17.214Z,91.0
2023-01-15T04:43:16.716Z,91.2
2023-01-15T04:44:17.241Z,91.4
2023-01-15T04:45:16.772Z,91.8
2023-01-15T04:46:17.320Z,91.8
2023-01-15T04:47:16.799Z,92.0
2023-01-15T04:48:17.304Z,92.1
2023-01-15T04:49:16.852Z,92.0
2023-01-15T04:50:17.402Z,92.1
2023-01-15T04:51:16.909Z,92.1
2023-01-15T04:52:16.570Z,92.1
2023-01-15T04:53:17.105Z,92.0
2023-01-15T04:54:16.642Z,92.0
2023-01-15T04:55:17.203Z,91.9
2023-01-15T04:56:16.737Z,91.9
2023-01-15T04:57:17.252Z,91.9
2023-01-15T04:58:16.782Z,91.8
2023-01-15T04:59:17.260Z,91.7
2023-01-15T05:00:16.790Z,91.6
2023-01-15T05:01:17.458Z,91.6
2023-01-15T05:02:17.195Z,91.7
2023-01-15T05:03:16.758Z,91.5
2023-01-15T05:04:17.322Z,91.3
2023-01-15T05:05:16.905Z,91.2
2023-01-15T05:06:17.400Z,91.1
2023-01-15T05:07:16.926Z,91.1
2023-01-15T05:08:17.436Z,91.0
2023-01-15T05:09:16.966Z,91.0
2023-01-15T05:10:16.507Z,91.0
2023-01-15T05:11:17.009Z,90.7
2023-01-15T05:12:17.320Z,90.7
2023-01-15T05:13:16.799Z,90.8
2023-01-15T05:14:17.291Z,90.8
2023-01-15T05:15:16.772Z,90.8
2023-01-15T05:16:17.280Z,90.9
2023-01-15T05:17:16.827Z,90.8
2023-01-15T05:18:17.326Z,90.8
2023-01-15T05:19:16.832Z,90.7
2023-01-15T05:20:17.336Z,90.7
2023-01-15T05:21:16.864Z,90.7
2023-01-15T05:22:16.837Z,90.7
2023-01-15T05:23:17.352Z,90.6
2023-01-15T05:24:16.899Z,90.4
2023-01-15T05:25:17.434Z,90.4
2023-01-15T05:26:16.944Z,90.4
2023-01-15T05:27:17.453Z,90.3
2023-01-15T05:28:16.947Z,90.1
2023-01-15T05:29:17.434Z,90.1
2023-01-15T05:30:16.932Z,90.2
2023-01-15T05:31:17.555Z,90.2
2023-01-15T05:32:16.971Z,90.2
2023-01-15T05:33:16.479Z,90.1
2023-01-15T05:34:17.017Z,90.0
2023-01-15T05:35:16.524Z,89.9
2023-01-15T05:36:17.048Z,89.9
2023-01-15T05:37:16.582Z,89.8
2023-01-15T05:38:17.079Z,89.8
2023-01-15T05:39:16.600Z,89.7
2023-01-15T05:40:17.140Z,89.7
2023-01-15T05:41:16.637Z,89.8
2023-01-15T05:42:16.835Z,89.8
2023-01-15T05:43:17.323Z,90.0
2023-01-15T05:44:16.827Z,90.2
2023-01-15T05:45:17.327Z,90.3
2023-01-15T05:46:16.911Z,90.3
2023-01-15T05:47:17.425Z,90.4
2023-01-15T05:48:16.926Z,90.4
2023-01-15T05:49:17.454Z,90.5
2023-01-15T05:50:16.974Z,90.6
2023-01-15T05:51:16.466Z,90.7
2023-01-15T05:52:17.061Z,91.1
2023-01-15T05:53:16.580Z,91.3
2023-01-15T05:54:17.114Z,91.4
2023-01-15T05:55:16.613Z,91.4
2023-01-15T05:56:17.151Z,91.7
2023-01-15T05:57:16.667Z,92.0
2023-01-15T05:58:17.158Z,92.2
2023-01-15T05:59:16.653Z,92.1
2023-01-15T06:00:17.181Z,92.5
2023-01-15T06:01:16.808Z,92.7
2023-01-15T06:02:17.164Z,93.0
2023-01-15T06:03:16.657Z,93.6
2023-01-15T06:04:17.163Z,93.5
2023-01-15T06:05:16.679Z,93.7
2023-01-15T06:06:17.206Z,93.6
2023-01-15T06:07:16.731Z,93.5
2023-01-15T06:08:17.202Z,93.7
2023-01-15T06:09:16.708Z,94.0
2023-01-15T06:10:17.213Z,94.5
2023-01-15T06:11:16.713Z,94.5
2023-01-15T06:12:17.244Z,94.7
2023-01-15T06:13:16.717Z,95.1
2023-01-15T06:14:17.211Z,95.2
2023-01-15T06:15:16.721Z,95.2
2023-01-15T06:16:17.386Z,95.6
2023-01-15T06:17:16.972Z,95.8
2023-01-15T06:18:16.519Z,96.0
2023-01-15T06:19:17.074Z,96.2
2023-01-15T06:20:16.586Z,95.9
2023-01-15T06:21:17.157Z,96.6
2023-01-15T06:22:17.447Z,96.6
2023-01-15T06:23:16.929Z,97.3
2023-01-15T06:24:17.413Z,97.4
2023-01-15T06:25:16.920Z,97.3
2023-01-15T06:26:17.439Z,97.1
2023-01-15T06:27:16.919Z,97.1
2023-01-15T06:28:17.429Z,97.5
2023-01-15T06:29:16.947Z,97.9
2023-01-15T06:30:17.593Z,97.5
2023-01-15T06:31:17.183Z,97.4
2023-01-15T06:32:16.992Z,97.3
2023-01-15T06:33:16.501Z,97.2
2023-01-15T06:34:17.022Z,97.1
2023-01-15T06:35:16.519Z,97.1
2023-01-15T06:36:17.023Z,97.0
2023-01-15T06:37:16.527Z,97.0
2023-01-15T06:38:17.013Z,97.0
2023-01-15T06:39:16.543Z,97.1
2023-01-15T06:40:17.065Z,97.1
2023-01-15T06:41:16.561Z,97.1
2023-01-15T06:42:16.973Z,97.0
2023-01-15T06:43:16.461Z,97.1
2023-01-15T06:44:16.975Z,97.1
2023-01-15T06:45:16.497Z,97.1
2023-01-15T06:46:17.093Z,97.0
2023-01-15T06:47:16.654Z,96.9
2023-01-15T06:48:17.133Z,96.9
2023-01-15T06:49:16.643Z,96.9
2023-01-15T06:50:17.141Z,96.9
2023-01-15T06:51:16.640Z,96.9
2023-01-15T06:52:17.348Z,96.8
2023-01-15T06:53:16.830Z,96.8
2023-01-15T06:54:17.317Z,96.8
2023-01-15T06:55:16.811Z,96.8
2023-01-15T06:56:17.472Z,96.7
2023-01-15T06:57:16.963Z,96.7
2023-01-15T06:58:17.480Z,96.6
2023-01-15T06:59:16.982Z,96.6
2023-01-15T07:00:16.510Z,96.7
2023-01-15T07:01:17.264Z,96.7
2023-01-15T07:02:16.656Z,96.7
2023-01-15T07:03:17.172Z,96.7
2023-01-15T07:04:16.768Z,96.7
2023-01-15T07:05:17.320Z,96.7
2023-01-15T07:06:16.795Z,96.7
2023-01-15T07:07:17.327Z,96.8
2023-01-15T07:08:16.848Z,96.8
2023-01-15T07:09:17.373Z,96.7
2023-01-15T07:10:16.891Z,96.7
2023-01-15T07:11:17.401Z,96.7
2023-01-15T07:12:16.766Z,96.7
2023-01-15T07:13:17.255Z,96.9
2023-01-15T07:14:16.763Z,96.9
2023-01-15T07:15:17.264Z,96.9
2023-01-15T07:16:16.844Z,96.8
2023-01-15T07:17:17.344Z,96.8
2023-01-15T07:18:16.851Z,96.8
2023-01-15T07:19:17.355Z,96.8
2023-01-15T07:20:16.888Z,96.8
2023-01-15T07:21:17.377Z,96.8
2023-01-15T07:22:17.261Z,96.8
2023-01-15T07:23:17.046Z,96.8
2023-01-15T07:24:16.621Z,96.9
2023-01-15T07:25:17.127Z,96.9
2023-01-15T07:26:16.635Z,97.1
2023-01-15T07:27:17.139Z,97.2
2023-01-15T07:28:16.643Z,97.1
2023-01-15T07:29:17.137Z,97.3
2023-01-15T07:30:16.612Z,97.3
2023-01-15T07:31:17.265Z,97.3
2023-01-15T07:32:16.693Z,97.3
2023-01-15T07:33:17.172Z,97.2
2023-01-15T07:34:16.675Z,97.2
2023-01-15T07:35:17.205Z,97.3
2023-01-15T07:36:16.709Z,97.3
2023-01-15T07:37:17.227Z,97.4
2023-01-15T07:38:16.732Z,97.4
2023-01-15T07:39:17.241Z,97.4
2023-01-15T07:40:16.749Z,97.4
2023-01-15T07:41:17.260Z,97.3
2023-01-15T07:42:17.007Z,97.3
2023-01-15T07:43:16.530Z,97.3
2023-01-15T07:44:17.042Z,97.2
2023-01-15T07:45:16.526Z,97.2
2023-01-15T07:46:17.008Z,97.3
2023-01-15T07:47:16.550Z,97.2
2023-01-15T07:48:17.036Z,97.2
2023-01-15T07:49:16.532Z,97.2
2023-01-15T07:50:17.039Z,97.2
2023-01-15T07:51:16.542Z,97.2
2023-01-15T07:52:17.267Z,97.2
2023-01-15T07:53:16.771Z,97.2
2023-01-15T07:54:17.307Z,97.2
2023-01-15T07:55:16.801Z,97.3
2023-01-15T07:56:17.305Z,97.3
2023-01-15T07:57:16.818Z,97.3
2023-01-15T07:58:17.297Z,97.3
2023-01-15T07:59:16.809Z,97.3
2023-01-15T08:00:17.359Z,97.4
2023-01-15T08:01:17.104Z,97.4
2023-01-15T08:02:17.451Z,97.4
2023-01-15T08:03:16.949Z,97.4
2023-01-15T08:04:17.589Z,97.5
2023-01-15T08:05:17.142Z,97.8
2023-01-15T08:06:16.646Z,97.7
2023-01-15T08:07:17.163Z,97.9
2023-01-15T08:08:16.675Z,98.0
2023-01-15T08:09:17.182Z,97.8
2023-01-15T08:10:16.693Z,97.8
2023-01-15T08:11:17.316Z,97.8
2023-01-15T08:12:16.800Z,97.9
2023-01-15T08:13:17.306Z,97.9
2023-01-15T08:14:16.773Z,97.8
2023-01-15T08:15:17.266Z,97.7
2023-01-15T08:16:16.861Z,97.7
2023-01-15T08:17:17.359Z,97.7
2023-01-15T08:18:16.866Z,97.7
2023-01-15T08:19:17.407Z,97.6
2023-01-15T08:20:16.941Z,97.5
2023-01-15T08:21:17.456Z,97.6
2023-01-15T08:22:16.810Z,97.5
2023-01-15T08:23:17.299Z,97.5
2023-01-15T08:24:16.818Z,97.5
2023-01-15T08:25:17.333Z,97.4
2023-01-15T08:26:16.841Z,98.0
2023-01-15T08:27:17.340Z,98.0
2023-01-15T08:28:16.812Z,97.9
2023-01-15T08:29:17.333Z,97.9
2023-01-15T08:30:16.855Z,97.9
2023-01-15T08:31:17.425Z,97.8
2023-01-15T08:32:16.933Z,98.1
2023-01-15T08:33:17.456Z,98.1
2023-01-15T08:34:16.960Z,97.9
2023-01-15T08:35:17.519Z,97.8
2023-01-15T08:36:17.055Z,97.7
2023-01-15T08:37:16.554Z,97.5
2023-01-15T08:38:17.071Z,97.6
2023-01-15T08:39:16.597Z,97.6
2023-01-15T08:40:17.105Z,97.6
2023-01-15T08:41:16.580Z,97.4
2023-01-15T08:42:17.001Z,97.3
2023-01-15T08:43:16.551Z,97.3
2023-01-15T08:44:17.058Z,97.4
2023-01-15T08:45:16.593Z,97.6
2023-01-15T08:46:17.089Z,97.6
2023-01-15T08:47:16.608Z,97.3
2023-01-15T08:48:17.131Z,97.3
2023-01-15T08:49:16.644Z,97.6
2023-01-15T08:50:17.159Z,97.6
2023-01-15T08:51:16.637Z,97.5
2023-01-15T08:52:16.491Z,97.6
2023-01-15T08:53:16.967Z,97.6
2023-01-15T08:54:17.480Z,97.7
2023-01-15T08:55:16.955Z,97.6
2023-01-15T08:56:17.468Z,97.6
2023-01-15T08:57:17.008Z,97.6
2023-01-15T08:58:16.506Z,97.7
2023-01-15T08:59:17.069Z,97.9
2023-01-15T09:00:17.940Z,97.9
2023-01-15T09:01:17.727Z,97.6
2023-01-15T09:02:16.527Z,97.6
2023-01-15T09:03:17.073Z,97.8
2023-01-15T09:04:16.595Z,97.9
2023-01-15T09:05:17.097Z,97.6
2023-01-15T09:06:16.620Z,97.7
2023-01-15T09:07:17.237Z,97.9
2023-01-15T09:08:16.742Z,97.9
2023-01-15T09:09:17.258Z,97.8
2023-01-15T09:10:16.788Z,97.7
2023-01-15T09:11:17.298Z,97.4
2023-01-15T09:12:17.145Z,97.7
2023-01-15T09:13:16.644Z,97.7
2023-01-15T09:14:56.430Z,97.6
2023-01-15T09:15:16.685Z,97.6
2023-01-15T09:16:17.240Z,97.6
2023-01-15T09:17:16.778Z,97.4
2023-01-15T09:18:17.287Z,97.5
2023-01-15T09:19:16.790Z,97.4
2023-01-15T09:20:17.297Z,97.2
2023-01-15T09:21:16.824Z,97.1
2023-01-15T09:22:16.559Z,96.9
2023-01-15T09:23:17.089Z,96.6
2023-01-15T09:24:16.560Z,96.8
2023-01-15T09:25:17.093Z,96.8
2023-01-15T09:26:16.570Z,96.8
2023-01-15T09:27:17.132Z,96.9
2023-01-15T09:28:16.631Z,96.7
2023-01-15T09:29:17.134Z,96.7
2023-01-15T09:30:16.623Z,96.7
2023-01-15T09:31:17.235Z,96.7
2023-01-15T09:32:16.768Z,96.7
2023-01-15T09:33:17.284Z,96.4
2023-01-15T09:34:16.772Z,96.5
2023-01-15T09:35:17.310Z,96.8
2023-01-15T09:36:16.834Z,96.8
2023-01-15T09:37:17.317Z,96.7
2023-01-15T09:38:16.817Z,96.7
2023-01-15T09:39:17.340Z,96.7
2023-01-15T09:40:16.861Z,96.7
2023-01-15T09:41:17.380Z,96.7
2023-01-15T09:42:16.962Z,96.6
2023-01-15T09:43:16.462Z,96.6
2023-01-15T09:44:16.964Z,96.5
2023-01-15T09:45:17.473Z,96.6
2023-01-15T09:46:17.024Z,96.6
2023-01-15T09:47:16.499Z,96.5
2023-01-15T09:48:18.515Z,96.5
2023-01-15T09:49:17.027Z,96.4
2023-01-15T09:50:16.559Z,96.4
2023-01-15T09:51:17.055Z,96.3
2023-01-15T09:52:17.256Z,96.1
2023-01-15T09:53:16.745Z,96.0
2023-01-15T09:54:18.380Z,95.9
2023-01-15T09:55:16.907Z,95.4
2023-01-15T09:56:17.448Z,95.5
2023-01-15T09:57:16.946Z,95.5
2023-01-15T09:58:17.439Z,95.7
2023-01-15T09:59:16.922Z,95.6
2023-01-15T10:00:17.446Z,95.6
2023-01-15T10:01:17.060Z,95.6
2023-01-15T10:02:17.353Z,95.7
2023-01-15T10:03:17.030Z,95.8
2023-01-15T10:04:16.731Z,95.7
2023-01-15T10:05:17.222Z,95.6
2023-01-15T10:06:16.743Z,95.6
2023-01-15T10:07:17.246Z,95.6
2023-01-15T10:08:16.744Z,95.7
2023-01-15T10:09:17.261Z,95.8
2023-01-15T10:10:18.496Z,95.9
2023-01-15T10:11:17.012Z,95.9
2023-01-15T10:12:16.630Z,96.0
2023-01-15T10:13:17.116Z,96.0
2023-01-15T10:14:16.772Z,96.6
2023-01-15T10:15:17.275Z,96.8
2023-01-15T10:16:16.932Z,97.0
2023-01-15T10:17:16.519Z,97.1
2023-01-15T10:18:17.010Z,97.0
2023-01-15T10:19:16.508Z,97.2
2023-01-15T10:20:17.004Z,97.4
2023-01-15T10:21:16.544Z,97.2
2023-01-15T10:22:17.395Z,97.1
2023-01-15T10:23:16.910Z,97.0
2023-01-15T10:24:17.407Z,96.9
2023-01-15T10:25:16.908Z,97.0
2023-01-15T10:26:17.408Z,96.8
2023-01-15T10:27:16.942Z,97.5
2023-01-15T10:28:18.442Z,97.6
2023-01-15T10:29:16.938Z,97.3
2023-01-15T10:30:17.489Z,96.9
2023-01-15T10:31:17.129Z,96.9
2023-01-15T10:32:16.647Z,97.1
2023-01-15T10:33:17.149Z,97.1
2023-01-15T10:34:16.676Z,96.9
2023-01-15T10:35:17.215Z,97.0
2023-01-15T10:36:16.720Z,97.0
2023-01-15T10:37:17.252Z,97.3
2023-01-15T10:38:16.790Z,97.2
2023-01-15T10:39:17.278Z,97.3
2023-01-15T10:40:16.768Z,97.4
2023-01-15T10:41:17.293Z,97.6
2023-01-15T10:42:16.963Z,97.5
2023-01-15T10:43:16.448Z,97.6
2023-01-15T10:44:17.001Z,97.5
2023-01-15T10:45:16.532Z,97.5
2023-01-15T10:46:17.070Z,97.4
2023-01-15T10:47:16.676Z,97.3
2023-01-15T10:48:17.168Z,97.3
2023-01-15T10:49:16.698Z,97.3
2023-01-15T10:50:17.407Z,97.0
2023-01-15T10:51:16.964Z,96.9
2023-01-15T10:52:17.132Z,96.9
2023-01-15T10:53:16.653Z,97.0
2023-01-15T10:54:17.210Z,96.9
2023-01-15T10:55:16.737Z,96.7
2023-01-15T10:56:17.253Z,96.8
2023-01-15T10:57:16.741Z,96.7
2023-01-15T10:58:17.248Z,96.8
2023-01-15T10:59:16.740Z,96.9
2023-01-15T11:00:17.503Z,97.0
2023-01-15T11:01:17.442Z,96.9
2023-01-15T11:02:17.647Z,96.8
2023-01-15T11:03:17.267Z,96.8
2023-01-15T11:04:16.765Z,96.7
2023-01-15T11:05:17.280Z,96.6
2023-01-15T11:06:16.794Z,96.7
2023-01-15T11:07:17.343Z,96.6
2023-01-15T11:09:06.309Z,96.7
2023-01-15T11:09:17.364Z,96.5
2023-01-15T11:10:17.051Z,96.5
2023-01-15T11:11:16.595Z,96.6
2023-01-15T11:12:16.952Z,96.7
2023-01-15T11:13:17.441Z,96.6
2023-01-15T11:14:16.951Z,96.9
2023-01-15T11:15:17.474Z,96.9
2023-01-15T11:16:17.012Z,96.8
2023-01-15T11:17:16.518Z,97.0
2023-01-15T11:18:17.039Z,96.9
2023-01-15T11:19:17.097Z,96.9
2023-01-15T11:20:16.781Z,96.9
2023-01-15T11:21:17.286Z,96.6
2023-01-15T11:22:16.612Z,96.8
2023-01-15T11:23:17.129Z,96.7
2023-01-15T11:24:16.657Z,96.9
2023-01-15T11:25:17.175Z,96.9
2023-01-15T11:26:16.692Z,97.0
2023-01-15T11:27:17.215Z,97.0
2023-01-15T11:28:16.721Z,97.0
2023-01-15T11:29:17.229Z,97.0
2023-01-15T11:30:16.745Z,96.8
2023-01-15T11:31:17.442Z,96.8
2023-01-15T11:32:16.663Z,97.4
2023-01-15T11:33:17.254Z,97.6
2023-01-15T11:34:16.787Z,97.6
2023-01-15T11:35:17.285Z,97.3
2023-01-15T11:36:16.766Z,97.4
2023-01-15T11:37:17.274Z,97.4
2023-01-15T11:38:16.809Z,97.8
2023-01-15T11:39:17.292Z,97.8
2023-01-15T11:40:16.766Z,97.9
2023-01-15T11:41:17.290Z,97.9
2023-01-15T11:42:16.909Z,97.6
2023-01-15T11:43:17.442Z,97.4
2023-01-15T11:44:16.968Z,97.5
2023-01-15T11:45:17.531Z,97.5
2023-01-15T11:46:17.105Z,97.4
2023-01-15T11:47:16.629Z,97.5
2023-01-15T11:48:17.097Z,97.5
2023-01-15T11:49:16.625Z,97.5
2023-01-15T11:50:17.116Z,97.6
2023-01-15T11:51:16.600Z,97.8
2023-01-15T11:52:17.392Z,97.7
2023-01-15T11:53:18.778Z,97.7
2023-01-15T11:54:17.295Z,97.5
2023-01-15T11:55:16.827Z,97.4
2023-01-15T11:56:17.344Z,97.5
2023-01-15T11:57:16.891Z,97.4
2023-01-15T11:58:17.392Z,97.6
2023-01-15T11:59:16.903Z,97.6
2023-01-15T12:00:17.443Z,97.9
2023-01-15T12:01:17.094Z,97.9
2023-01-15T12:02:16.882Z,97.8
2023-01-15T12:03:17.487Z,97.8
2023-01-15T12:04:17.196Z,97.8
2023-01-15T12:05:16.755Z,97.9
2023-01-15T12:06:17.251Z,97.8
2023-01-15T12:07:16.742Z,97.6
2023-01-15T12:08:17.268Z,97.7
2023-01-15T12:09:16.771Z,97.7
2023-01-15T12:10:17.284Z,97.8
2023-01-15T12:11:27.445Z,97.9
2023-01-15T12:12:17.290Z,97.9
2023-01-15T12:13:16.839Z,97.9
2023-01-15T12:14:17.375Z,98.1
2023-01-15T12:15:16.860Z,98.0
2023-01-15T12:16:17.439Z,98.1
2023-01-15T12:17:16.954Z,98.2
2023-01-15T12:18:17.430Z,98.4
2023-01-15T12:19:16.956Z,98.5
2023-01-15T12:20:17.469Z,98.5
2023-01-15T12:21:16.976Z,98.5
2023-01-15T12:22:16.625Z,98.6
2023-01-15T12:23:17.177Z,98.6
2023-01-15T12:24:16.690Z,98.3
2023-01-15T12:25:17.242Z,98.2
2023-01-15T12:26:16.753Z,98.2
2023-01-15T12:27:17.303Z,97.9
2023-01-15T12:28:16.804Z,97.6
2023-01-15T12:29:17.311Z,97.5
2023-01-15T12:30:16.842Z,97.6
2023-01-15T12:31:17.450Z,97.6
2023-01-15T12:32:16.946Z,97.6
2023-01-15T12:33:17.429Z,97.6
2023-01-15T12:34:16.975Z,97.3
2023-01-15T12:35:16.499Z,97.2
2023-01-15T12:36:17.033Z,97.2
2023-01-15T12:37:16.556Z,97.4
2023-01-15T12:38:17.037Z,96.9
2023-01-15T12:39:16.526Z,96.7
2023-01-15T12:40:17.028Z,96.8
2023-01-15T12:41:16.599Z,96.9
2023-01-15T12:42:17.009Z,96.7
2023-01-15T12:43:16.507Z,96.8
2023-01-15T12:44:16.994Z,97.1
2023-01-15T12:45:16.503Z,97.1
2023-01-15T12:46:17.137Z,97.0
2023-01-15T12:47:16.676Z,97.0
2023-01-15T12:48:17.186Z,97.3
2023-01-15T12:49:16.734Z,97.4
2023-01-15T12:50:17.256Z,97.5
2023-01-15T12:51:16.869Z,97.5
2023-01-15T12:52:17.287Z,97.7
2023-01-15T12:53:16.923Z,97.7
2023-01-15T12:54:17.450Z,97.8
2023-01-15T12:55:16.967Z,98.2
2023-01-15T12:56:17.477Z,98.3
2023-01-15T12:57:17.014Z,98.1
2023-01-15T12:58:16.492Z,98.0
2023-01-15T12:59:16.974Z,98.0
2023-01-15T13:00:16.518Z,97.9
2023-01-15T13:01:17.231Z,97.9
2023-01-15T13:02:17.593Z,97.5
2023-01-15T13:03:17.188Z,97.3
2023-01-15T13:04:16.774Z,97.6
2023-01-15T13:05:17.292Z,98.0
2023-01-15T13:06:16.819Z,98.1
2023-01-15T13:07:17.314Z,98.1
2023-01-15T13:08:16.842Z,98.2
2023-01-15T13:09:17.350Z,98.1
2023-01-15T13:10:16.844Z,98.0
2023-01-15T13:11:17.338Z,98.2
2023-01-15T13:12:17.222Z,98.2
2023-01-15T13:13:16.740Z,98.0
2023-01-15T13:14:17.261Z,98.0
2023-01-15T13:15:16.758Z,98.0
2023-01-15T13:16:17.524Z,97.8
2023-01-15T13:17:17.141Z,97.8
2023-01-15T13:18:16.672Z,97.7